createdAt,value
2019-02-22T00:00:39.404Z,6.70
2019-02-22T00:03:09.022Z,6.70
2019-02-22T00:05:41.843Z,6.60
2019-02-22T00:08:13.278Z,6.60
2019-02-22T00:10:45.481Z,6.60
2019-02-22T00:13:14.987Z,6.60
2019-02-22T00:15:44.389Z,6.60
2019-02-22T00:18:14.408Z,6.60
2019-02-22T00:20:43.653Z,6.60
2019-02-22T00:23:12.767Z,6.70
2019-02-22T00:25:41.907Z,6.70
2019-02-22T00:28:11.088Z,6.70
2019-02-22T00:30:40.600Z,6.70
2019-02-22T00:33:10.397Z,6.70
2019-02-22T00:35:40.262Z,6.70
2019-02-22T00:38:10.283Z,6.60
2019-02-22T00:40:39.465Z,6.60
2019-02-22T00:43:08.624Z,6.60
2019-02-22T00:45:37.826Z,6.50
2019-02-22T00:48:07.819Z,6.40
2019-02-22T00:50:37.768Z,6.50
2019-02-22T00:53:09.732Z,6.50
2019-02-22T00:55:39.443Z,6.50
2019-02-22T00:58:08.654Z,6.50
2019-02-22T01:00:37.825Z,6.50
2019-02-22T01:03:07.227Z,6.40
2019-02-22T01:05:36.733Z,6.40
2019-02-22T01:08:06.353Z,6.40
2019-02-22T01:10:35.856Z,6.40
2019-02-22T01:13:05.101Z,6.40
2019-02-22T01:15:34.482Z,6.50
2019-02-22T01:18:03.901Z,6.40
2019-02-22T01:20:33.395Z,6.30
2019-02-22T01:23:02.813Z,6.30
2019-02-22T01:25:32.273Z,6.30
2019-02-22T01:28:01.736Z,6.30
2019-02-22T01:30:31.716Z,6.20
2019-02-22T01:33:01.301Z,6.20
2019-02-22T01:35:30.829Z,6.30
2019-02-22T01:38:00.354Z,6.30
2019-02-22T01:40:30.124Z,6.30
2019-02-22T01:42:59.732Z,6.30
2019-02-22T01:45:29.337Z,6.30
2019-02-22T01:47:58.841Z,6.20
2019-02-22T01:50:28.133Z,6.20
2019-02-22T01:52:57.262Z,6.10
2019-02-22T01:55:26.437Z,5.90
2019-02-22T01:57:56.091Z,6.10
2019-02-22T02:00:25.648Z,6.10
2019-02-22T02:02:55.188Z,6.20
2019-02-22T02:05:24.805Z,6.20
2019-02-22T02:07:54.160Z,6.20
2019-02-22T02:10:23.620Z,6.10
2019-02-22T02:12:53.171Z,6.20
2019-02-22T02:15:22.783Z,6.20
2019-02-22T02:17:52.309Z,6.30
2019-02-22T02:20:21.953Z,6.30
2019-02-22T02:22:51.908Z,6.20
2019-02-22T02:25:21.521Z,6.20
2019-02-22T02:27:51.277Z,6.20
2019-02-22T02:30:20.802Z,6.20
2019-02-22T02:32:50.317Z,6.20
2019-02-22T02:35:19.882Z,6.20
2019-02-22T02:37:56.869Z,6.20
2019-02-22T02:40:25.985Z,6.20
2019-02-22T02:42:55.601Z,6.20
2019-02-22T02:45:25.036Z,6.10
2019-02-22T02:47:54.468Z,6.10
2019-02-22T02:50:24.076Z,6.10
2019-02-22T02:52:53.749Z,6.10
2019-02-22T02:55:31.206Z,6.20
2019-02-22T02:58:00.654Z,6.20
2019-02-22T03:00:30.391Z,6.20
2019-02-22T03:02:59.588Z,6.20
2019-02-22T03:05:44.580Z,6.20
2019-02-22T03:08:13.722Z,6.10
2019-02-22T03:10:42.978Z,6.10
2019-02-22T03:13:12.228Z,6.10
2019-02-22T03:15:41.524Z,6.20
2019-02-22T03:18:10.716Z,6.20
2019-02-22T03:20:39.988Z,6.10
2019-02-22T03:23:09.267Z,6.20
2019-02-22T03:25:38.428Z,6.20
2019-02-22T03:28:07.906Z,6.20
2019-02-22T03:30:37.253Z,6.20
2019-02-22T03:33:06.976Z,6.40
2019-02-22T03:35:36.672Z,6.40
2019-02-22T03:38:06.112Z,6.40
2019-02-22T03:40:35.664Z,6.40
2019-02-22T03:43:05.086Z,6.40
2019-02-22T03:45:34.319Z,6.40
2019-02-22T03:48:03.455Z,6.40
2019-02-22T03:50:33.046Z,6.40
2019-02-22T03:53:08.618Z,6.40
2019-02-22T03:55:38.110Z,6.40
2019-02-22T03:58:07.584Z,6.40
2019-02-22T04:00:37.152Z,6.50
2019-02-22T04:03:06.729Z,6.40
2019-02-22T04:05:36.496Z,6.40
2019-02-22T04:08:07.195Z,6.40
2019-02-22T04:10:36.697Z,6.40
2019-02-22T04:13:06.517Z,6.40
2019-02-22T04:15:35.922Z,6.40
2019-02-22T04:18:05.376Z,6.40
2019-02-22T04:20:35.013Z,6.40
2019-02-22T04:23:05.117Z,6.40
2019-02-22T04:25:34.558Z,6.40
2019-02-22T04:28:03.859Z,6.40
2019-02-22T04:30:33.577Z,6.30
2019-02-22T04:33:02.954Z,6.30
2019-02-22T04:35:32.171Z,6.30
2019-02-22T04:38:01.526Z,6.20
2019-02-22T04:40:30.732Z,6.20
2019-02-22T04:42:59.938Z,6.20
2019-02-22T04:45:29.226Z,6.20
2019-02-22T04:47:58.326Z,6.20
2019-02-22T04:50:27.948Z,6.20
2019-02-22T04:52:57.099Z,6.20
2019-02-22T04:55:29.187Z,6.20
2019-02-22T04:57:57.319Z,6.10
2019-02-22T05:00:26.551Z,6.10
2019-02-22T05:02:55.751Z,6.10
2019-02-22T05:05:24.892Z,6.20
2019-02-22T05:07:54.029Z,6.20
2019-02-22T05:10:23.273Z,6.20
2019-02-22T05:12:52.477Z,6.10
2019-02-22T05:15:21.621Z,6.20
2019-02-22T05:17:50.892Z,6.10
2019-02-22T05:20:20.144Z,6.20
2019-02-22T05:22:49.257Z,6.20
2019-02-22T05:25:18.360Z,6.30
2019-02-22T05:27:47.492Z,6.30
2019-02-22T05:30:16.693Z,6.30
2019-02-22T05:32:45.943Z,6.30
2019-02-22T05:35:15.016Z,6.40
2019-02-22T05:37:44.129Z,6.40
2019-02-22T05:40:13.313Z,6.30
2019-02-22T05:42:42.496Z,6.40
2019-02-22T05:45:11.706Z,6.40
2019-02-22T05:47:40.891Z,6.40
2019-02-22T05:50:10.024Z,6.30
2019-02-22T05:52:51.797Z,6.40
2019-02-22T05:55:21.132Z,6.40
2019-02-22T05:57:50.357Z,6.40
2019-02-22T06:00:20.203Z,6.40
2019-02-22T06:02:49.425Z,6.30
2019-02-22T06:05:18.690Z,6.30
2019-02-22T06:07:48.118Z,6.30
2019-02-22T06:10:17.526Z,6.30
2019-02-22T06:12:47.097Z,6.30
2019-02-22T06:15:16.413Z,6.10
2019-02-22T06:17:45.860Z,6.10
2019-02-22T06:20:15.353Z,6.10
2019-02-22T06:22:44.613Z,6.10
2019-02-22T06:25:14.050Z,6.20
2019-02-22T06:27:43.532Z,6.20
2019-02-22T06:30:12.862Z,6.10
2019-02-22T06:32:42.631Z,6.10
2019-02-22T06:35:12.275Z,6.10
2019-02-22T06:37:41.609Z,6.20
2019-02-22T06:40:10.831Z,6.30
2019-02-22T06:42:45.664Z,6.10
2019-02-22T06:45:11.539Z,6.20
2019-02-22T06:47:41.068Z,6.20
2019-02-22T06:50:10.439Z,6.20
2019-02-22T06:52:39.896Z,6.30
2019-02-22T06:55:09.333Z,6.30
2019-02-22T06:57:38.782Z,6.30
2019-02-22T07:00:09.507Z,6.30
2019-02-22T07:02:39.059Z,6.30
2019-02-22T07:05:08.631Z,6.30
2019-02-22T07:07:37.943Z,6.30
2019-02-22T07:10:08.636Z,6.30
2019-02-22T07:12:41.507Z,6.20
2019-02-22T07:15:11.111Z,6.30
2019-02-22T07:17:40.542Z,6.30
2019-02-22T07:20:11.364Z,6.40
2019-02-22T07:22:40.859Z,6.40
2019-02-22T07:25:11.279Z,6.30
2019-02-22T07:27:40.819Z,6.30
2019-02-22T07:30:10.681Z,6.40
2019-02-22T07:32:40.123Z,6.40
2019-02-22T07:35:10.042Z,6.40
2019-02-22T07:37:39.388Z,6.40
2019-02-22T07:40:08.797Z,6.30
2019-02-22T07:42:38.078Z,6.40
2019-02-22T07:45:09.616Z,6.30
2019-02-22T07:47:38.958Z,6.40
2019-02-22T07:50:10.313Z,6.50
2019-02-22T07:52:39.586Z,6.40
2019-02-22T07:55:09.819Z,6.40
2019-02-22T07:57:40.176Z,6.40
2019-02-22T08:00:12.424Z,6.30
2019-02-22T08:02:41.788Z,6.30
2019-02-22T08:05:10.985Z,6.40
2019-02-22T08:07:40.177Z,6.40
2019-02-22T08:10:09.390Z,6.50
2019-02-22T08:12:38.739Z,6.50
2019-02-22T08:15:09.337Z,6.50
2019-02-22T08:17:38.776Z,6.40
2019-02-22T08:20:08.576Z,6.50
2019-02-22T08:22:37.834Z,6.60
2019-02-22T08:25:07.446Z,6.60
2019-02-22T08:27:36.681Z,6.60
2019-02-22T08:30:07.068Z,6.60
2019-02-22T08:32:36.430Z,6.70
2019-02-22T08:35:06.081Z,6.60
2019-02-22T08:37:35.335Z,6.50
2019-02-22T08:40:05.089Z,6.60
2019-02-22T08:42:34.348Z,6.70
2019-02-22T08:45:04.207Z,6.60
2019-02-22T08:47:33.560Z,6.70
2019-02-22T08:50:02.796Z,6.80
2019-02-22T08:52:32.097Z,6.80
2019-02-22T08:55:01.423Z,6.80
2019-02-22T08:57:30.733Z,6.80
2019-02-22T09:00:00.028Z,6.80
2019-02-22T09:02:29.246Z,6.80
2019-02-22T09:04:58.564Z,6.80
2019-02-22T09:07:27.858Z,6.80
2019-02-22T09:09:57.668Z,6.90
2019-02-22T09:12:26.916Z,6.80
2019-02-22T09:14:56.208Z,6.90
2019-02-22T09:17:25.503Z,7.00
2019-02-22T09:19:54.841Z,7.00
2019-02-22T09:22:24.144Z,7.00
2019-02-22T09:24:53.456Z,7.10
2019-02-22T09:27:22.755Z,7.20
2019-02-22T09:29:58.930Z,7.00
2019-02-22T09:32:23.129Z,7.10
2019-02-22T09:34:52.405Z,7.20
2019-02-22T09:37:21.651Z,7.20
2019-02-22T09:39:50.786Z,7.30
2019-02-22T09:42:19.911Z,7.40
2019-02-22T09:44:49.181Z,7.30
2019-02-22T09:47:18.379Z,7.40
2019-02-22T09:49:47.623Z,7.30
2019-02-22T09:52:16.850Z,7.30
2019-02-22T09:54:46.038Z,7.30
2019-02-22T09:57:15.367Z,7.30
2019-02-22T09:59:44.510Z,7.30
2019-02-22T10:02:13.785Z,7.30
2019-02-22T10:04:54.303Z,7.40
2019-02-22T10:07:13.987Z,7.30
2019-02-22T10:09:43.187Z,7.40
2019-02-22T10:12:12.467Z,7.40
2019-02-22T10:14:41.738Z,7.50
2019-02-22T10:17:10.996Z,7.50
2019-02-22T10:19:40.395Z,7.40
2019-02-22T10:22:09.744Z,7.50
2019-02-22T10:24:39.017Z,7.40
2019-02-22T10:27:08.215Z,7.60
2019-02-22T10:29:37.409Z,7.50
2019-02-22T10:32:06.583Z,7.50
2019-02-22T10:34:35.811Z,7.50
2019-02-22T10:37:05.073Z,7.50
2019-02-22T10:39:34.332Z,7.60
2019-02-22T10:42:03.586Z,7.60
2019-02-22T10:44:32.858Z,7.70
2019-02-22T10:47:02.015Z,7.80
2019-02-22T10:49:31.274Z,7.80
2019-02-22T10:52:00.416Z,7.80
2019-02-22T10:54:29.700Z,7.90
2019-02-22T10:56:59.261Z,7.90
2019-02-22T10:59:28.475Z,8.00
2019-02-22T11:01:57.708Z,8.00
2019-02-22T11:04:27.190Z,8.00
2019-02-22T11:06:56.361Z,8.10
2019-02-22T11:09:25.587Z,8.10
2019-02-22T11:11:54.789Z,8.20
2019-02-22T11:14:29.265Z,8.30
2019-02-22T11:16:54.906Z,8.30
2019-02-22T11:19:24.092Z,8.30
2019-02-22T11:21:53.229Z,8.30
2019-02-22T11:24:22.473Z,8.30
2019-02-22T11:26:51.646Z,8.40
2019-02-22T11:29:20.975Z,8.40
2019-02-22T11:31:50.190Z,8.40
2019-02-22T11:34:19.474Z,8.50
2019-02-22T11:36:48.701Z,8.30
2019-02-22T11:39:17.888Z,8.50
2019-02-22T11:41:47.151Z,8.50
2019-02-22T11:44:16.362Z,8.70
2019-02-22T11:46:45.632Z,8.20
2019-02-22T11:49:14.818Z,8.40
2019-02-22T11:51:43.982Z,8.20
2019-02-22T11:54:13.144Z,8.30
2019-02-22T11:56:42.485Z,8.40
2019-02-22T11:59:11.615Z,8.30
2019-02-22T12:01:40.886Z,8.70
2019-02-22T12:04:10.133Z,8.90
2019-02-22T12:06:39.360Z,8.80
2019-02-22T12:09:08.626Z,9.00
2019-02-22T12:11:37.858Z,9.00
2019-02-22T12:14:07.112Z,8.70
2019-02-22T12:16:36.314Z,8.50
2019-02-22T12:19:05.534Z,8.60
2019-02-22T12:21:34.777Z,8.60
2019-02-22T12:24:03.939Z,8.60
2019-02-22T12:26:33.078Z,8.10
2019-02-22T12:29:02.291Z,8.30
2019-02-22T12:31:31.464Z,8.20
2019-02-22T12:34:00.599Z,8.30
2019-02-22T12:36:29.829Z,8.30
2019-02-22T12:38:58.978Z,8.50
2019-02-22T12:41:28.215Z,8.40
2019-02-22T12:43:59.866Z,8.10
2019-02-22T12:46:28.304Z,8.30
2019-02-22T12:48:57.526Z,8.30
2019-02-22T12:51:26.767Z,8.30
2019-02-22T12:53:56.067Z,8.30
2019-02-22T12:56:55.755Z,8.00
2019-02-22T12:58:56.083Z,8.30
2019-02-22T13:01:25.280Z,8.60
2019-02-22T13:03:54.658Z,8.50
2019-02-22T13:06:23.806Z,8.80
2019-02-22T13:08:53.019Z,8.80
2019-02-22T13:11:22.242Z,9.00
2019-02-22T13:13:51.506Z,9.10
2019-02-22T13:16:20.719Z,9.20
2019-02-22T13:18:49.917Z,9.40
2019-02-22T13:21:19.154Z,9.20
2019-02-22T13:23:48.476Z,9.30
2019-02-22T13:26:18.093Z,9.50
2019-02-22T13:28:47.426Z,9.70
2019-02-22T13:31:16.653Z,9.70
2019-02-22T13:33:46.138Z,9.50
2019-02-22T13:36:15.434Z,9.60
2019-02-22T13:38:44.625Z,9.80
2019-02-22T13:41:13.861Z,9.90
2019-02-22T13:43:43.038Z,9.80
2019-02-22T13:46:12.274Z,9.70
2019-02-22T13:48:41.942Z,9.50
2019-02-22T13:51:11.258Z,9.30
2019-02-22T13:53:40.449Z,9.20
2019-02-22T13:56:09.807Z,9.20
2019-02-22T13:58:39.094Z,9.00
2019-02-22T14:01:08.355Z,8.90
2019-02-22T14:03:37.756Z,8.80
2019-02-22T14:06:07.018Z,8.40
2019-02-22T14:08:36.389Z,8.30
2019-02-22T14:11:05.592Z,8.20
2019-02-22T14:13:34.829Z,8.10
2019-02-22T14:16:04.044Z,8.10
2019-02-22T14:18:33.326Z,8.00
2019-02-22T14:21:02.523Z,8.00
2019-02-22T14:23:31.711Z,8.00
2019-02-22T14:26:00.949Z,8.00
2019-02-22T14:28:30.156Z,8.00
2019-02-22T14:30:59.420Z,7.90
2019-02-22T14:33:28.663Z,7.90
2019-02-22T14:35:58.846Z,7.90
2019-02-22T14:38:28.111Z,7.90
2019-02-22T14:40:57.379Z,7.80
2019-02-22T14:43:26.609Z,7.80
2019-02-22T14:45:55.886Z,7.70
2019-02-22T14:48:25.052Z,7.80
2019-02-22T14:50:54.247Z,7.90
2019-02-22T14:53:23.425Z,8.00
2019-02-22T14:55:52.595Z,8.00
2019-02-22T14:58:21.828Z,8.00
2019-02-22T15:00:51.156Z,8.10
2019-02-22T15:03:20.408Z,8.30
2019-02-22T15:05:49.623Z,8.50
2019-02-22T15:08:18.882Z,8.60
2019-02-22T15:10:48.147Z,8.50
2019-02-22T15:13:17.433Z,8.60
2019-02-22T15:16:04.410Z,8.40
2019-02-22T15:18:33.667Z,8.20
2019-02-22T15:21:02.942Z,8.30
2019-02-22T15:23:32.222Z,8.10
2019-02-22T15:26:01.463Z,8.10
2019-02-22T15:28:30.753Z,8.30
2019-02-22T15:31:00.065Z,7.80
2019-02-22T15:33:29.374Z,8.10
2019-02-22T15:35:58.578Z,8.20
2019-02-22T15:38:27.797Z,8.20
2019-02-22T15:40:57.179Z,8.00
2019-02-22T15:43:26.458Z,7.70
2019-02-22T15:45:55.690Z,7.80
2019-02-22T15:48:24.938Z,7.80
2019-02-22T15:50:54.139Z,7.60
2019-02-22T15:53:23.392Z,7.60
2019-02-22T15:55:52.929Z,7.60
2019-02-22T15:58:22.150Z,7.70
2019-02-22T16:00:51.311Z,7.60
2019-02-22T16:03:20.656Z,7.60
2019-02-22T16:05:49.853Z,7.60
2019-02-22T16:08:19.384Z,7.50
2019-02-22T16:10:48.713Z,7.40
2019-02-22T16:13:17.911Z,7.50
2019-02-22T16:15:47.415Z,7.40
2019-02-22T16:18:16.701Z,7.50
2019-02-22T16:20:45.959Z,7.40
2019-02-22T16:23:15.370Z,7.40
2019-02-22T16:25:44.840Z,7.30
2019-02-22T16:28:15.823Z,7.20
2019-02-22T16:30:45.387Z,7.00
2019-02-22T16:33:15.070Z,6.90
2019-02-22T16:35:44.826Z,6.60
2019-02-22T16:38:14.443Z,6.60
2019-02-22T16:40:43.919Z,6.50
2019-02-22T16:43:13.516Z,6.60
2019-02-22T16:45:42.965Z,6.70
2019-02-22T16:48:12.617Z,6.70
2019-02-22T16:50:42.109Z,6.80
2019-02-22T16:53:11.424Z,6.80
2019-02-22T16:55:40.883Z,6.80
2019-02-22T16:58:10.140Z,6.80
2019-02-22T17:00:39.394Z,6.80
2019-02-22T17:03:08.648Z,6.60
2019-02-22T17:05:43.786Z,6.60
2019-02-22T17:08:12.933Z,6.50
2019-02-22T17:10:42.098Z,6.60
2019-02-22T17:13:11.303Z,6.60
2019-02-22T17:15:40.533Z,6.60
2019-02-22T17:18:09.825Z,6.60
2019-02-22T17:20:38.974Z,6.60
2019-02-22T17:23:08.207Z,6.60
2019-02-22T17:25:37.416Z,6.60
2019-02-22T17:28:06.655Z,6.60
2019-02-22T17:30:35.869Z,6.60
2019-02-22T17:33:05.099Z,6.70
2019-02-22T17:35:34.304Z,6.70
2019-02-22T17:38:03.484Z,6.70
2019-02-22T17:40:32.727Z,6.70
2019-02-22T17:43:03.531Z,6.70
2019-02-22T17:45:32.734Z,6.70
2019-02-22T17:48:02.170Z,6.70
2019-02-22T17:50:31.381Z,6.60
2019-02-22T17:53:00.542Z,6.50
2019-02-22T17:55:29.694Z,6.30
2019-02-22T17:57:58.858Z,6.40
2019-02-22T18:00:29.097Z,6.50
2019-02-22T18:02:58.334Z,6.50
2019-02-22T18:05:27.997Z,6.50
2019-02-22T18:07:57.250Z,6.50
2019-02-22T18:10:26.487Z,6.50
2019-02-22T18:12:55.820Z,6.50
2019-02-22T18:15:24.944Z,6.40
2019-02-22T18:17:54.095Z,6.50
2019-02-22T18:20:23.395Z,6.50
2019-02-22T18:22:52.600Z,6.50
2019-02-22T18:25:22.039Z,6.50
2019-02-22T18:27:51.194Z,6.40
2019-02-22T18:30:20.594Z,6.40
2019-02-22T18:32:49.790Z,6.40
2019-02-22T18:35:19.015Z,6.40
2019-02-22T18:37:48.197Z,6.30
2019-02-22T18:40:17.491Z,6.30
2019-02-22T18:42:46.633Z,6.20
2019-02-22T18:45:15.805Z,6.20
2019-02-22T18:47:45.011Z,6.20
2019-02-22T18:50:14.260Z,6.10
2019-02-22T18:52:43.457Z,6.00
2019-02-22T18:55:12.674Z,6.00
2019-02-22T18:57:41.930Z,6.00
2019-02-22T19:00:13.499Z,6.10
2019-02-22T19:02:42.735Z,6.10
2019-02-22T19:05:12.026Z,6.00
2019-02-22T19:07:42.798Z,6.00
2019-02-22T19:10:12.223Z,6.00
2019-02-22T19:12:41.454Z,5.90
2019-02-22T19:15:12.113Z,5.90
2019-02-22T19:17:41.338Z,5.90
2019-02-22T19:20:12.561Z,6.00
2019-02-22T19:22:41.779Z,5.90
2019-02-22T19:25:11.001Z,5.90
2019-02-22T19:27:40.219Z,5.90
2019-02-22T19:30:12.550Z,5.80
2019-02-22T19:32:41.679Z,5.80
2019-02-22T19:35:10.882Z,5.80
2019-02-22T19:37:44.658Z,5.80
2019-02-22T19:40:16.005Z,5.80
2019-02-22T19:42:45.257Z,5.80
2019-02-22T19:45:14.453Z,5.80
2019-02-22T19:47:43.898Z,5.80
2019-02-22T19:50:13.346Z,5.90
2019-02-22T19:52:42.633Z,5.80
2019-02-22T19:55:13.158Z,5.90
2019-02-22T19:57:42.363Z,5.90
2019-02-22T20:00:13.627Z,5.90
2019-02-22T20:02:42.824Z,5.80
2019-02-22T20:05:12.871Z,5.80
2019-02-22T20:07:42.094Z,5.80
2019-02-22T20:10:17.967Z,5.80
2019-02-22T20:12:43.793Z,5.80
2019-02-22T20:15:14.272Z,5.80
2019-02-22T20:17:53.307Z,5.70
2019-02-22T20:20:15.157Z,5.70
2019-02-22T20:22:44.294Z,5.70
2019-02-22T20:25:13.515Z,5.70
2019-02-22T20:27:42.779Z,5.70
2019-02-22T20:30:14.046Z,5.70
2019-02-22T20:32:43.335Z,5.70
2019-02-22T20:35:15.021Z,5.60
2019-02-22T20:37:52.522Z,5.60
2019-02-22T20:40:16.751Z,5.50
2019-02-22T20:42:46.209Z,5.50
2019-02-22T20:45:15.727Z,5.50
2019-02-22T20:47:44.967Z,5.40
2019-02-22T20:50:14.233Z,5.40
2019-02-22T20:52:43.489Z,5.40
2019-02-22T20:55:12.658Z,5.30
2019-02-22T20:57:41.876Z,5.60
2019-02-22T21:00:14.246Z,5.60
2019-02-22T21:02:43.522Z,5.50
2019-02-22T21:05:12.680Z,5.30
2019-02-22T21:07:46.477Z,5.30
2019-02-22T21:10:16.761Z,5.30
2019-02-22T21:12:46.350Z,5.20
2019-02-22T21:15:15.581Z,5.20
2019-02-22T21:17:45.073Z,5.20
2019-02-22T21:20:14.651Z,5.20
2019-02-22T21:22:50.115Z,5.20
2019-02-22T21:25:23.909Z,5.30
2019-02-22T21:27:53.187Z,5.20
2019-02-22T21:30:22.447Z,5.20
2019-02-22T21:32:51.777Z,5.20
2019-02-22T21:35:23.292Z,5.10
2019-02-22T21:37:52.204Z,5.10
2019-02-22T21:40:21.500Z,5.20
2019-02-22T21:42:50.726Z,5.10
2019-02-22T21:45:19.860Z,5.10
2019-02-22T21:47:54.693Z,5.10
2019-02-22T21:50:19.905Z,5.10
2019-02-22T21:52:49.093Z,5.10
2019-02-22T21:55:18.254Z,5.10
2019-02-22T21:57:47.474Z,5.20
2019-02-22T22:00:17.885Z,5.10
2019-02-22T22:02:47.143Z,5.10
2019-02-22T22:05:16.320Z,5.10
2019-02-22T22:07:45.524Z,5.10
2019-02-22T22:10:14.739Z,5.10
2019-02-22T22:12:43.854Z,5.10
2019-02-22T22:15:13.019Z,5.10
2019-02-22T22:17:42.203Z,5.10
2019-02-22T22:20:11.472Z,5.10
2019-02-22T22:22:40.671Z,5.00
2019-02-22T22:25:10.371Z,5.00
2019-02-22T22:27:39.512Z,5.00
2019-02-22T22:30:09.828Z,4.90
2019-02-22T22:32:39.033Z,4.90
2019-02-22T22:35:09.144Z,4.80
2019-02-22T22:37:38.332Z,4.80
2019-02-22T22:40:08.742Z,4.70
2019-02-22T22:42:37.878Z,4.70
2019-02-22T22:45:07.554Z,4.70
2019-02-22T22:47:36.743Z,4.70
2019-02-22T22:50:07.185Z,4.70
2019-02-22T22:52:36.290Z,4.70
2019-02-22T22:55:05.561Z,4.70
2019-02-22T22:57:34.693Z,4.70
2019-02-22T23:00:04.283Z,4.60
2019-02-22T23:02:33.479Z,4.60
2019-02-22T23:05:02.981Z,4.60
2019-02-22T23:07:32.222Z,4.60
2019-02-22T23:10:01.373Z,4.50
2019-02-22T23:12:30.510Z,4.50
2019-02-22T23:14:59.633Z,4.50
2019-02-22T23:17:28.737Z,4.50
2019-02-22T23:19:57.899Z,4.50
2019-02-22T23:22:27.123Z,4.40
2019-02-22T23:24:56.314Z,4.40
2019-02-22T23:27:25.517Z,4.30
2019-02-22T23:29:54.718Z,4.30
2019-02-22T23:32:23.858Z,4.30
2019-02-22T23:34:53.101Z,4.30
2019-02-22T23:37:22.222Z,4.20
2019-02-22T23:39:51.345Z,4.10
2019-02-22T23:42:20.523Z,4.20
2019-02-22T23:44:49.649Z,4.10
2019-02-22T23:47:18.852Z,4.10
2019-02-22T23:49:47.997Z,4.00
2019-02-22T23:52:17.221Z,4.00
2019-02-22T23:54:46.388Z,4.00
2019-02-22T23:57:15.585Z,3.90
2019-02-22T23:59:44.817Z,4.00
